createdAt,value
2018-11-20T00:02:57.444Z,81.30
2018-11-20T00:06:30.245Z,81.40
2018-11-20T00:09:44.534Z,81.60
2018-11-20T00:13:14.072Z,80.90
2018-11-20T00:16:37.854Z,80.70
2018-11-20T00:20:00.369Z,80.60
2018-11-20T00:23:22.709Z,80.60
2018-11-20T00:26:38.678Z,81.20
2018-11-20T00:30:05.470Z,80.90
2018-11-20T00:33:27.722Z,81.60
2018-11-20T00:36:47.212Z,81.50
2018-11-20T00:40:26.015Z,81.40
2018-11-20T00:43:48.200Z,82.60
2018-11-20T00:47:27.180Z,82.10
2018-11-20T00:50:47.207Z,81.90
2018-11-20T00:54:03.850Z,81.90
2018-11-20T00:57:36.223Z,82.20
2018-11-20T01:01:03.525Z,82.20
2018-11-20T01:04:27.367Z,82.90
2018-11-20T01:07:49.669Z,82.20
2018-11-20T01:11:31.650Z,82.30
2018-11-20T01:15:01.490Z,82.70
2018-11-20T01:18:31.074Z,82.30
2018-11-20T01:21:51.346Z,82.50
2018-11-20T01:25:29.895Z,82.00
2018-11-20T01:29:05.885Z,82.30
2018-11-20T01:32:38.261Z,82.10
2018-11-20T01:36:14.119Z,82.30
2018-11-20T01:39:49.874Z,81.60
2018-11-20T01:43:12.391Z,82.80
2018-11-20T01:46:42.059Z,82.30
2018-11-20T01:50:17.583Z,81.90
2018-11-20T01:53:53.126Z,82.50
2018-11-20T01:57:19.829Z,81.90
2018-11-20T02:00:41.989Z,82.00
2018-11-20T02:03:58.374Z,81.70
2018-11-20T02:07:32.413Z,81.70
2018-11-20T02:10:56.214Z,81.90
2018-11-20T02:14:31.047Z,80.80
2018-11-20T02:18:04.806Z,80.40
2018-11-20T02:21:27.091Z,81.20
2018-11-20T02:24:55.438Z,80.70
2018-11-20T02:28:19.311Z,81.70
2018-11-20T02:31:51.750Z,81.20
2018-11-20T02:35:18.478Z,82.20
2018-11-20T02:38:48.299Z,82.10
2018-11-20T02:42:16.166Z,81.90
2018-11-20T02:45:40.006Z,82.30
2018-11-20T02:48:56.161Z,82.00
2018-11-20T02:52:19.973Z,82.00
2018-11-20T02:55:35.961Z,81.50
2018-11-20T02:58:58.021Z,81.30
2018-11-20T03:02:20.243Z,80.70
2018-11-20T03:05:42.477Z,80.80
2018-11-20T03:08:54.149Z,80.80
2018-11-20T03:12:26.694Z,81.10
2018-11-20T03:16:00.033Z,80.80
2018-11-20T03:20:11.522Z,80.30
2018-11-20T03:23:29.492Z,81.20
2018-11-20T03:26:50.886Z,81.30
2018-11-20T03:31:03.863Z,81.90
2018-11-20T03:34:41.904Z,80.90
2018-11-20T03:38:20.097Z,81.00
2018-11-20T03:41:51.708Z,80.80
2018-11-20T03:45:20.332Z,80.90
2018-11-20T03:48:43.343Z,81.00
2018-11-20T03:52:11.343Z,80.90
2018-11-20T03:55:32.913Z,81.00
2018-11-20T03:58:58.391Z,80.30
2018-11-20T04:02:19.730Z,80.60
2018-11-20T04:05:42.545Z,81.40
2018-11-20T04:09:20.857Z,81.70
2018-11-20T04:12:42.114Z,81.50
2018-11-20T04:16:13.839Z,81.10
2018-11-20T04:19:35.442Z,81.30
2018-11-20T04:22:50.578Z,80.90
2018-11-20T04:26:13.575Z,81.00
2018-11-20T04:29:25.448Z,80.70
2018-11-20T04:32:48.405Z,80.50
2018-11-20T04:36:08.904Z,80.90
2018-11-20T04:39:32.074Z,81.40
2018-11-20T04:42:51.581Z,81.80
2018-11-20T04:46:12.995Z,81.40
2018-11-20T04:49:45.053Z,80.70
2018-11-20T04:52:57.633Z,80.50
2018-11-20T04:56:19.080Z,80.90
2018-11-20T04:59:57.073Z,80.80
2018-11-20T05:03:26.035Z,81.30
2018-11-20T05:06:48.983Z,81.10
2018-11-20T05:10:13.247Z,81.00
2018-11-20T05:13:35.061Z,81.30
2018-11-20T05:16:52.818Z,81.30
2018-11-20T05:20:24.826Z,81.00
2018-11-20T05:23:56.642Z,81.20
2018-11-20T05:27:19.614Z,81.50
2018-11-20T05:30:42.674Z,81.40
2018-11-20T05:34:05.526Z,81.40
2018-11-20T05:37:34.321Z,81.00
2018-11-20T05:40:57.405Z,80.70
2018-11-20T05:44:19.008Z,81.30
2018-11-20T05:47:40.390Z,81.40
2018-11-20T05:51:09.375Z,81.40
2018-11-20T05:54:39.414Z,81.40
2018-11-20T05:58:08.045Z,81.80
2018-11-20T06:01:28.217Z,81.80
2018-11-20T06:04:49.869Z,81.80
2018-11-20T06:08:27.448Z,82.10
2018-11-20T06:11:52.814Z,81.80
2018-11-20T06:15:15.803Z,81.90
2018-11-20T06:18:48.005Z,81.80
2018-11-20T06:22:16.577Z,81.80
2018-11-20T06:25:38.121Z,81.50
2018-11-20T06:28:57.453Z,81.90
2018-11-20T06:32:26.503Z,82.50
2018-11-20T06:35:49.580Z,84.00
2018-11-20T06:39:11.432Z,83.00
2018-11-20T06:42:33.416Z,81.90
2018-11-20T06:46:14.315Z,81.60
2018-11-20T06:49:36.248Z,81.50
2018-11-20T06:52:58.220Z,81.90
2018-11-20T06:56:36.038Z,81.60
2018-11-20T06:59:57.551Z,81.60
2018-11-20T07:03:20.577Z,81.90
2018-11-20T07:06:42.786Z,81.40
2018-11-20T07:09:55.153Z,81.90
2018-11-20T07:13:42.141Z,82.10
2018-11-20T07:17:09.002Z,82.20
2018-11-20T07:20:32.065Z,81.90
2018-11-20T07:23:58.082Z,82.20
2018-11-20T07:27:23.683Z,82.50
2018-11-20T07:30:49.782Z,82.30
2018-11-20T07:34:07.418Z,82.00
2018-11-20T07:37:19.357Z,81.90
2018-11-20T07:40:42.237Z,81.60
2018-11-20T07:44:12.374Z,81.10
2018-11-20T07:47:50.009Z,81.70
2018-11-20T07:51:13.411Z,82.20
2018-11-20T07:54:36.294Z,82.30
2018-11-20T07:58:14.296Z,82.50
2018-11-20T08:01:39.980Z,82.30
2018-11-20T08:04:50.525Z,82.00
2018-11-20T08:08:11.887Z,81.60
2018-11-20T08:11:52.824Z,82.00
2018-11-20T08:15:21.892Z,82.00
2018-11-20T08:18:43.324Z,82.10
2018-11-20T08:22:04.723Z,82.60
2018-11-20T08:25:27.939Z,83.40
2018-11-20T08:29:02.606Z,83.80
2018-11-20T08:32:37.502Z,84.00
2018-11-20T08:36:03.160Z,84.30
2018-11-20T08:39:33.828Z,84.40
2018-11-20T08:42:59.554Z,84.40
2018-11-20T08:46:34.394Z,84.60
2018-11-20T08:49:55.990Z,84.80
2018-11-20T08:53:12.055Z,84.90
2018-11-20T08:56:35.125Z,84.10
2018-11-20T08:59:56.742Z,84.10
2018-11-20T09:03:28.153Z,84.30
2018-11-20T09:06:57.037Z,84.50
2018-11-20T09:10:28.995Z,83.90
2018-11-20T09:13:52.880Z,83.10
2018-11-20T09:17:14.015Z,83.10
2018-11-20T09:20:35.264Z,83.00
2018-11-20T09:24:07.767Z,83.40
2018-11-20T09:27:33.799Z,83.70
2018-11-20T09:30:55.228Z,83.90
2018-11-20T09:34:17.021Z,84.30
2018-11-20T09:37:40.014Z,84.50
2018-11-20T09:41:02.924Z,84.40
2018-11-20T09:44:40.944Z,84.40
2018-11-20T09:48:12.953Z,84.30
2018-11-20T09:51:51.099Z,83.00
2018-11-20T09:55:29.364Z,81.90
2018-11-20T09:58:50.895Z,81.20
2018-11-20T10:02:12.806Z,78.90
2018-11-20T10:05:41.348Z,77.20
2018-11-20T10:09:16.600Z,75.60
2018-11-20T10:12:42.415Z,74.30
2018-11-20T10:16:00.413Z,74.10
2018-11-20T10:19:24.001Z,74.60
2018-11-20T10:23:05.037Z,74.90
2018-11-20T10:26:30.593Z,73.40
2018-11-20T10:33:40.668Z,71.10
2018-11-20T10:37:06.508Z,71.30
2018-11-20T10:40:47.580Z,70.00
2018-11-20T10:44:10.421Z,70.10
2018-11-20T10:47:35.010Z,70.50
2018-11-20T10:50:56.702Z,71.10
2018-11-20T10:54:31.167Z,70.30
2018-11-20T10:57:56.113Z,70.70
2018-11-20T11:01:17.488Z,71.90
2018-11-20T11:04:29.365Z,72.50
2018-11-20T11:07:41.099Z,73.80
2018-11-20T11:11:03.304Z,74.80
2018-11-20T11:14:24.980Z,75.00
2018-11-20T11:17:46.314Z,74.60
2018-11-20T11:21:09.322Z,74.80
2018-11-20T11:24:24.883Z,74.40
2018-11-20T11:27:46.307Z,74.30
2018-11-20T11:31:07.766Z,75.00
2018-11-20T11:34:29.520Z,75.30
2018-11-20T11:37:52.514Z,75.60
2018-11-20T11:41:13.735Z,76.20
2018-11-20T11:44:35.134Z,76.60
2018-11-20T11:47:51.639Z,75.90
2018-11-20T11:51:13.163Z,76.30
2018-11-20T11:54:34.596Z,76.20
2018-11-20T11:57:57.453Z,76.70
2018-11-20T12:01:17.104Z,76.80
2018-11-20T12:04:38.570Z,76.70
2018-11-20T12:07:55.859Z,76.30
2018-11-20T12:11:21.659Z,76.30
2018-11-20T12:14:44.610Z,76.30
2018-11-20T12:18:10.269Z,75.70
2018-11-20T12:21:33.246Z,76.80
2018-11-20T12:24:59.036Z,76.40
2018-11-20T12:28:14.715Z,76.00
2018-11-20T12:31:44.079Z,77.30
2018-11-20T12:35:25.897Z,77.30
2018-11-20T12:38:50.536Z,77.80
2018-11-20T12:42:07.946Z,78.50
2018-11-20T12:45:42.923Z,77.80
2018-11-20T12:49:06.935Z,78.00
2018-11-20T12:52:27.718Z,78.20
2018-11-20T12:55:49.366Z,76.20
2018-11-20T12:59:13.888Z,77.10
2018-11-20T13:02:40.056Z,76.80
2018-11-20T13:06:09.626Z,76.50
2018-11-20T13:09:27.674Z,77.50
2018-11-20T13:12:50.839Z,77.00
2018-11-20T13:16:12.304Z,77.60
2018-11-20T13:19:35.737Z,78.40
2018-11-20T13:22:55.680Z,79.40
2018-11-20T13:26:20.815Z,78.70
2018-11-20T13:29:46.745Z,77.50
2018-11-20T13:33:09.752Z,77.70
2018-11-20T13:36:31.391Z,78.10
2018-11-20T13:39:51.885Z,78.00
2018-11-20T13:43:25.896Z,78.80
2018-11-20T13:46:46.257Z,78.60
2018-11-20T13:50:07.832Z,78.80
2018-11-20T13:53:27.752Z,79.10
2018-11-20T13:56:49.342Z,79.10
2018-11-20T14:00:11.077Z,78.60
2018-11-20T14:03:49.260Z,78.90
2018-11-20T14:07:20.918Z,78.50
2018-11-20T14:10:42.521Z,78.30
2018-11-20T14:14:05.412Z,78.20
2018-11-20T14:17:44.238Z,78.60
2018-11-20T14:21:22.145Z,78.60
2018-11-20T14:24:45.036Z,78.80
2018-11-20T14:28:25.743Z,79.20
2018-11-20T14:31:57.580Z,79.70
2018-11-20T14:35:26.201Z,80.10
2018-11-20T14:38:59.415Z,79.30
2018-11-20T14:42:25.325Z,79.00
2018-11-20T14:45:46.646Z,79.30
2018-11-20T14:49:08.356Z,79.90
2018-11-20T14:52:46.500Z,80.00
2018-11-20T14:56:06.722Z,79.60
2018-11-20T14:59:32.585Z,80.20
2018-11-20T15:02:54.173Z,80.10
2018-11-20T15:06:32.341Z,79.90
2018-11-20T15:10:13.504Z,81.10
2018-11-20T15:13:40.143Z,80.00
2018-11-20T15:17:04.616Z,79.80
2018-11-20T15:20:26.600Z,80.10
2018-11-20T15:23:49.553Z,80.20
2018-11-20T15:27:30.489Z,80.00
2018-11-20T15:31:11.746Z,80.70
2018-11-20T15:34:40.898Z,80.50
2018-11-20T15:37:54.481Z,80.50
2018-11-20T15:41:15.061Z,80.80
2018-11-20T15:44:36.473Z,80.70
2018-11-20T15:47:57.758Z,80.40
2018-11-20T15:51:20.783Z,80.70
2018-11-20T15:54:58.517Z,80.80
2018-11-20T15:58:30.439Z,80.30
2018-11-20T16:02:05.541Z,81.50
2018-11-20T16:05:29.897Z,81.50
2018-11-20T16:08:51.315Z,81.30
2018-11-20T16:12:26.309Z,81.50
2018-11-20T16:15:49.186Z,81.50
2018-11-20T16:19:21.072Z,81.40
2018-11-20T16:22:54.126Z,81.30
2018-11-20T16:26:12.437Z,81.50
2018-11-20T16:29:34.277Z,81.60
2018-11-20T16:33:03.002Z,81.70
2018-11-20T16:36:40.957Z,81.50
2018-11-20T16:40:22.194Z,82.10
2018-11-20T16:43:57.115Z,82.30
2018-11-20T16:47:20.464Z,82.10
2018-11-20T16:50:55.564Z,82.50
2018-11-20T16:54:21.459Z,83.10
2018-11-20T16:57:47.209Z,83.40
2018-11-20T17:01:12.662Z,82.50
2018-11-20T17:04:50.548Z,83.70
2018-11-20T17:08:15.610Z,84.50
2018-11-20T17:11:37.314Z,84.60
2018-11-20T17:15:15.708Z,84.10
2018-11-20T17:18:38.806Z,83.80
2018-11-20T17:22:01.706Z,83.60
2018-11-20T17:25:18.948Z,84.30
2018-11-20T17:28:45.164Z,83.70
2018-11-20T17:32:22.884Z,84.90
2018-11-20T17:35:40.871Z,84.60
2018-11-20T17:39:02.488Z,84.90
2018-11-20T17:42:34.978Z,84.50
2018-11-20T17:45:57.955Z,84.40
2018-11-20T17:49:18.455Z,84.20
2018-11-20T17:52:33.973Z,84.50
2018-11-20T17:56:07.431Z,84.60
2018-11-20T17:59:29.042Z,85.00
2018-11-20T18:02:50.455Z,84.60
2018-11-20T18:06:12.149Z,84.90
2018-11-20T18:09:50.253Z,84.90
2018-11-20T18:13:22.145Z,85.10
2018-11-20T18:16:54.015Z,84.60
2018-11-20T18:20:25.964Z,85.50
2018-11-20T18:23:40.456Z,85.20
2018-11-20T18:27:00.524Z,85.00
2018-11-20T18:30:30.695Z,85.00
2018-11-20T18:33:56.368Z,84.70
2018-11-20T18:37:12.190Z,84.40
2018-11-20T18:40:41.152Z,84.70
2018-11-20T18:44:05.088Z,85.00
2018-11-20T18:47:45.932Z,85.10
2018-11-20T18:51:14.979Z,84.80
2018-11-20T18:54:53.080Z,84.70
2018-11-20T18:58:14.781Z,84.50
2018-11-20T19:01:39.835Z,84.60
2018-11-20T19:05:01.866Z,85.20
2018-11-20T19:08:24.171Z,84.70
2018-11-20T19:11:46.196Z,84.80
2018-11-20T19:15:12.057Z,84.70
2018-11-20T19:18:50.160Z,85.00
2018-11-20T19:22:11.191Z,85.30
2018-11-20T19:25:32.376Z,85.00
2018-11-20T19:29:04.092Z,85.30
2018-11-20T19:32:29.814Z,85.10
2018-11-20T19:35:52.167Z,85.50
2018-11-20T19:39:24.281Z,85.20
2018-11-20T19:42:46.516Z,85.50
2018-11-20T19:46:14.240Z,85.20
2018-11-20T19:49:35.599Z,85.20
2018-11-20T19:52:57.385Z,85.50
2018-11-20T19:56:20.103Z,85.20
2018-11-20T19:59:41.622Z,85.30
2018-11-20T20:03:03.534Z,85.20
2018-11-20T20:06:25.291Z,85.40
2018-11-20T20:10:17.620Z,85.00
2018-11-20T20:13:46.928Z,85.20
2018-11-20T20:17:12.597Z,85.30
2018-11-20T20:20:35.516Z,84.50
2018-11-20T20:23:47.127Z,85.60
2018-11-20T20:27:22.274Z,85.90
2018-11-20T20:30:48.092Z,85.60
2018-11-20T20:34:23.254Z,85.80
2018-11-20T20:37:41.034Z,86.60
2018-11-20T20:41:05.240Z,86.20
2018-11-20T20:44:37.413Z,86.80
2018-11-20T20:48:00.437Z,86.40
2018-11-20T20:51:30.672Z,86.00
2018-11-20T20:54:53.362Z,85.70
2018-11-20T20:58:16.371Z,86.00
2018-11-20T21:01:37.974Z,85.20
2018-11-20T21:05:00.525Z,86.10
2018-11-20T21:08:36.298Z,85.40
2018-11-20T21:11:51.391Z,86.30
2018-11-20T21:15:13.194Z,86.10
2018-11-20T21:18:48.078Z,86.00
2018-11-20T21:22:12.233Z,86.20
2018-11-20T21:25:31.534Z,86.50
2018-11-20T21:28:44.611Z,86.10
2018-11-20T21:32:25.656Z,86.50
2018-11-20T21:35:57.562Z,86.10
2018-11-20T21:39:26.533Z,86.10
2018-11-20T21:42:55.841Z,86.30
2018-11-20T21:46:34.048Z,86.40
2018-11-20T21:49:55.862Z,86.90
2018-11-20T21:53:19.799Z,87.00
2018-11-20T21:56:45.452Z,86.90
2018-11-20T22:00:14.843Z,87.50
2018-11-20T22:03:36.659Z,88.00
2018-11-20T22:06:59.613Z,88.40
2018-11-20T22:10:21.038Z,88.50
2018-11-20T22:13:53.285Z,88.40
2018-11-20T22:17:16.479Z,88.80
2018-11-20T22:20:38.368Z,88.90
2018-11-20T22:24:01.458Z,89.10
2018-11-20T22:27:39.822Z,88.60
2018-11-20T22:31:01.745Z,88.50
2018-11-20T22:34:23.431Z,88.70
2018-11-20T22:37:44.913Z,88.90
2018-11-20T22:41:06.732Z,89.10
2018-11-20T22:44:23.542Z,89.10
2018-11-20T22:47:46.587Z,89.20
2018-11-20T22:51:24.773Z,89.70
2018-11-20T22:54:53.760Z,89.70
2018-11-20T22:58:20.914Z,89.70
2018-11-20T23:01:43.736Z,89.30
2018-11-20T23:05:08.140Z,88.90
2018-11-20T23:08:11.987Z,88.90
2018-11-20T23:11:15.782Z,88.90
2018-11-20T23:14:19.773Z,88.70
2018-11-20T23:17:23.740Z,88.70
2018-11-20T23:20:27.657Z,89.10
2018-11-20T23:23:31.623Z,89.40
2018-11-20T23:26:35.787Z,89.10
2018-11-20T23:29:39.496Z,89.00
2018-11-20T23:32:43.577Z,88.50
2018-11-20T23:35:47.519Z,88.70
2018-11-20T23:38:51.405Z,88.70
2018-11-20T23:41:55.216Z,88.90
2018-11-20T23:44:59.370Z,88.80
2018-11-20T23:48:03.254Z,89.60
2018-11-20T23:51:07.244Z,88.60
2018-11-20T23:54:11.166Z,88.30
2018-11-20T23:57:15.112Z,88.20
